Time;durP1;ratioP1;P1;durP2;ratioP2;P2;SDS_P1;SDS_P2;PMS_P1;PMS_P2;Temp;Humidity;BMP_temperature;BMP_pressure;BME280_temperature;BME280_humidity;BME280_pressure;Samples;Min_cycle;Max_cycle;Signal;HPM_P1;HPM_P2
2022/01/16 00:04:24;;;;;;;8.73;7.93;;;;;;;1.54;53.50;95792.84;5075979;28;20193;-65
2022/01/16 00:06:52;;;;;;;9.70;8.80;;;;;;;1.56;53.68;95777.91;5075913;28;20205;-65
2022/01/16 00:09:18;;;;;;;8.90;8.10;;;;;;;1.57;53.89;95759.69;5076415;28;20263;-65
2022/01/16 00:11:45;;;;;;;8.90;8.10;;;;;;;1.59;54.14;95771.06;5076651;28;20246;-65
2022/01/16 00:14:12;;;;;;;8.65;7.82;;;;;;;1.57;54.69;95782.22;5076609;28;20230;-65
2022/01/16 00:16:40;;;;;;;9.18;8.30;;;;;;;1.56;54.71;95790.66;5076226;28;20597;-66
2022/01/16 00:19:07;;;;;;;9.32;8.52;;;;;;;1.56;54.93;95799.66;5075808;28;20204;-66
2022/01/16 00:21:38;;;;;;;8.90;8.15;;;;;;;1.59;55.15;95818.09;5076012;28;20502;-66
2022/01/16 00:24:06;;;;;;;9.35;8.55;;;;;;;1.61;55.27;95836.88;5076411;28;20288;-66
2022/01/16 00:26:35;;;;;;;9.50;8.60;;;;;;;1.64;55.47;95849.94;5076020;28;20231;-66
2022/01/16 00:29:02;;;;;;;9.68;8.85;;;;;;;1.66;55.58;95864.84;5076131;28;20259;-66
2022/01/16 00:31:29;;;;;;;9.60;8.70;;;;;;;1.65;55.58;95916.81;5076244;28;20199;-66
2022/01/16 00:33:55;;;;;;;8.82;8.10;;;;;;;1.61;55.95;95862.16;5076224;28;20185;-66
2022/01/16 00:36:22;;;;;;;9.55;8.65;;;;;;;1.59;56.08;95768.34;5076145;28;20181;-66
2022/01/16 00:38:53;;;;;;;9.15;8.35;;;;;;;1.60;56.03;95802.63;5075949;28;20197;-66
2022/01/16 00:41:21;;;;;;;9.02;8.32;;;;;;;1.63;56.07;95840.13;5075166;28;20243;-66
2022/01/16 00:43:47;;;;;;;9.15;8.30;;;;;;;1.61;55.90;95718.03;5075236;28;20208;-66
2022/01/16 00:46:15;;;;;;;8.93;8.13;;;;;;;1.60;55.96;95699.31;5075068;28;20224;-66
2022/01/16 00:48:41;;;;;;;8.77;8.02;;;;;;;1.59;56.65;95763.72;5074734;28;20617;-66
2022/01/16 00:51:08;;;;;;;9.20;8.40;;;;;;;1.61;56.47;95654.69;5075601;28;20197;-66
2022/01/16 00:53:35;;;;;;;9.30;8.40;;;;;;;1.61;56.66;95654.69;5075010;28;20208;-66
2022/01/16 00:56:04;;;;;;;9.27;8.48;;;;;;;1.55;56.60;95675.66;5075334;28;20173;-66
2022/01/16 00:58:31;;;;;;;9.25;8.45;;;;;;;1.54;56.52;95656.91;5074549;28;20211;-65
2022/01/16 01:00:57;;;;;;;9.35;8.55;;;;;;;1.49;56.96;95690.38;5074488;28;20207;-66
2022/01/16 01:03:25;;;;;;;9.00;8.20;;;;;;;1.49;56.76;95730.31;5074977;28;20201;-66
2022/01/16 01:05:52;;;;;;;8.50;7.70;;;;;;;1.49;57.20;95749.34;5074708;28;20573;-66
2022/01/16 01:08:19;;;;;;;7.60;6.90;;;;;;;1.52;57.02;95727.06;5074774;28;20205;-65
2022/01/16 01:10:49;;;;;;;8.30;7.60;;;;;;;1.54;57.00;95724.88;5075052;28;20201;-65
2022/01/16 01:13:23;;;;;;;8.43;7.72;;;;;;;1.56;56.91;95775.19;5075191;28;20223;-65
2022/01/16 01:15:58;;;;;;;8.82;7.97;;;;;;;1.55;56.70;95761.84;5074712;28;20217;-65
2022/01/16 01:18:25;;;;;;;9.45;8.65;;;;;;;1.34;57.30;95737.47;5075519;28;20220;-65
2022/01/16 01:20:52;;;;;;;9.68;8.88;;;;;;;1.13;57.63;95749.50;5075122;28;20537;-65
2022/01/16 01:23:19;;;;;;;8.32;7.55;;;;;;;1.14;58.24;95741.06;5074943;28;20206;-66
2022/01/16 01:25:46;;;;;;;8.23;7.53;;;;;;;1.24;58.06;95728.56;5074385;28;20213;-66
2022/01/16 01:28:13;;;;;;;8.25;7.55;;;;;;;1.31;58.10;95743.47;5075039;28;20185;-66
2022/01/16 01:30:43;;;;;;;8.25;7.55;;;;;;;1.33;57.86;95744.00;5074978;28;20187;-66
2022/01/16 01:33:13;;;;;;;8.07;7.28;;;;;;;1.35;57.76;95736.38;5074684;28;20601;-65
2022/01/16 01:35:40;;;;;;;7.93;7.32;;;;;;;1.39;57.97;95742.06;5074770;28;20216;-65
2022/01/16 01:38:08;;;;;;;7.45;6.85;;;;;;;1.40;57.63;95755.38;5074922;28;20189;-65
2022/01/16 01:40:36;;;;;;;7.35;6.75;;;;;;;1.44;57.67;95756.44;5074160;28;20277;-65
2022/01/16 01:51:00;;;;;;;7.60;6.90;;;;;;;1.43;57.27;95773.84;5074210;28;20204;-66
2022/01/16 01:51:26;;;;;;;7.20;6.60;;;;;;;1.53;57.47;95800.19;5074542;28;20197;-65
2022/01/16 01:53:55;;;;;;;7.20;6.60;;;;;;;1.52;57.63;95781.44;5074803;28;20181;-65
2022/01/16 01:56:23;;;;;;;7.75;7.05;;;;;;;1.56;57.74;95771.63;5074043;28;20250;-66
2022/01/16 01:58:50;;;;;;;7.18;6.57;;;;;;;1.58;57.61;95785.75;5074710;28;20205;-65
2022/01/16 02:01:18;;;;;;;7.22;6.57;;;;;;;1.56;57.46;95785.22;5075183;28;20189;-65
2022/01/16 02:03:45;;;;;;;7.47;6.82;;;;;;;1.54;57.60;95788.22;5073929;28;20212;-66
2022/01/16 02:06:14;;;;;;;7.57;6.88;;;;;;;1.53;57.57;95788.50;5074666;28;20211;-66
2022/01/16 02:08:43;;;;;;;7.50;6.90;;;;;;;1.52;57.72;95789.59;5076785;28;20189;-66
2022/01/16 02:11:12;;;;;;;7.13;6.53;;;;;;;1.48;57.95;95797.47;5078831;28;20593;-65
2022/01/16 02:13:48;;;;;;;8.30;7.60;;;;;;;1.41;57.99;95797.78;5078249;28;20620;-65
2022/01/16 02:35:32;;;;;;;10.52;9.55;;;;;;;1.02;60.29;95794.06;5078346;28;20177;-65
2022/01/16 02:37:59;;;;;;;10.68;9.77;;;;;;;0.97;60.24;95792.19;5078193;28;20185;-65
2022/01/16 02:40:28;;;;;;;10.10;9.25;;;;;;;0.92;59.96;95787.59;5077353;28;20201;-65
2022/01/16 02:42:55;;;;;;;11.07;10.07;;;;;;;0.90;60.19;95791.66;5077143;28;20201;-65
2022/01/16 02:45:30;;;;;;;11.27;10.27;;;;;;;0.90;60.85;95780.78;5078577;28;20186;-65
2022/01/16 02:47:59;;;;;;;10.40;9.50;;;;;;;0.92;61.42;95790.31;5078264;28;20196;-65
2022/01/16 02:50:26;;;;;;;10.80;9.82;;;;;;;0.95;61.38;95791.66;5077306;28;20193;-65
2022/01/16 02:52:53;;;;;;;10.70;9.80;;;;;;;0.98;61.56;95777.53;5077869;28;20181;-65
2022/01/16 02:55:21;;;;;;;10.30;9.50;;;;;;;1.01;61.91;95771.53;5078114;28;20178;-66
2022/01/16 02:57:50;;;;;;;9.85;9.05;;;;;;;1.06;61.51;95771.53;5077807;28;20275;-66
2022/01/16 03:00:17;;;;;;;9.88;8.98;;;;;;;1.08;61.80;95776.69;5077161;28;20189;-66
2022/01/16 03:02:44;;;;;;;8.70;7.97;;;;;;;1.07;61.46;95772.34;5077952;28;20185;-66
2022/01/16 03:05:13;;;;;;;9.52;8.75;;;;;;;1.09;61.82;95764.72;5076717;28;20639;-66
2022/01/16 03:07:41;;;;;;;10.40;9.50;;;;;;;1.09;61.78;95767.44;5077596;28;20592;-66
2022/01/16 03:10:29;;;;;;;9.60;8.80;;;;;;;1.11;61.80;95767.97;5077292;28;20220;-66
2022/01/16 03:12:57;;;;;;;10.38;9.48;;;;;;;1.07;61.81;95775.88;5077774;28;20211;-66
2022/01/16 03:15:25;;;;;;;10.40;9.57;;;;;;;1.07;61.75;95766.91;5077200;28;20189;-65
2022/01/16 03:23:21;;;;;;;10.00;9.20;;;;;;;1.04;61.85;95775.59;5076420;28;20228;-65
2022/01/16 03:25:48;;;;;;;10.55;9.65;;;;;;;1.02;62.18;95769.63;5076619;28;20217;-66
2022/01/16 03:28:17;;;;;;;10.15;9.35;;;;;;;1.01;62.01;95765.28;5076123;28;20189;-66
2022/01/16 03:30:44;;;;;;;10.02;9.23;;;;;;;1.03;61.78;95772.09;5077117;28;20204;-66
2022/01/16 03:33:11;;;;;;;10.57;9.77;;;;;;;1.04;61.96;95773.69;5076568;28;20205;-66
2022/01/16 03:35:38;;;;;;;10.40;9.57;;;;;;;1.04;61.96;95764.75;5076804;28;20200;-66
2022/01/16 03:38:05;;;;;;;10.13;9.27;;;;;;;1.05;61.83;95782.66;5076450;28;20200;-66
2022/01/16 03:40:32;;;;;;;10.13;9.32;;;;;;;1.04;61.73;95776.41;5076530;28;20204;-66
2022/01/16 03:43:09;;;;;;;10.40;9.48;;;;;;;1.07;61.63;95786.75;5076381;28;20223;-65
2022/01/16 03:45:37;;;;;;;10.60;9.77;;;;;;;1.09;61.63;95786.44;5076203;28;20200;-66
2022/01/16 03:48:04;;;;;;;9.90;9.10;;;;;;;1.11;61.52;95797.88;5076192;28;20539;-65
2022/01/16 03:50:31;;;;;;;9.80;9.05;;;;;;;1.11;61.32;95785.09;5076243;28;20259;-65
2022/01/16 03:52:58;;;;;;;10.32;9.43;;;;;;;1.10;61.57;95794.34;5076997;28;20189;-65
2022/01/16 03:55:25;;;;;;;10.60;9.75;;;;;;;1.08;61.66;95791.06;5076149;28;20631;-65
2022/01/16 03:57:52;;;;;;;10.98;10.07;;;;;;;1.08;61.44;95790.25;5076446;28;20250;-65
2022/01/16 04:00:18;;;;;;;10.55;9.65;;;;;;;1.06;61.55;95787.84;5076912;28;20187;-65
2022/01/16 04:02:47;;;;;;;10.52;9.57;;;;;;;1.05;61.38;95791.63;5076826;28;20208;-65
2022/01/16 04:05:13;;;;;;;10.63;9.73;;;;;;;1.04;61.27;95795.44;5076835;28;20186;-65
2022/01/16 04:07:40;;;;;;;10.38;9.50;;;;;;;1.01;61.77;95789.72;5076831;28;20211;-65
2022/01/16 04:10:08;;;;;;;10.32;9.45;;;;;;;1.00;61.57;95793.56;5076839;28;20207;-65
2022/01/16 04:12:38;;;;;;;10.27;9.48;;;;;;;1.00;61.24;95804.41;5075462;28;20204;-65
2022/01/16 04:17:52;;;;;;;10.98;10.07;;;;;;;0.98;61.56;95807.41;5075336;28;20224;-66
2022/01/16 04:20:18;;;;;;;10.90;10.00;;;;;;;0.98;61.65;95803.84;5075626;28;20208;-66
2022/01/16 04:22:46;;;;;;;10.15;9.35;;;;;;;0.96;61.30;95799.53;5075138;28;20600;-66
2022/01/16 04:25:13;;;;;;;10.90;10.00;;;;;;;0.98;61.15;95818.28;5076155;28;20605;-66
2022/01/16 04:27:40;;;;;;;10.27;9.38;;;;;;;0.98;61.13;95817.44;5076081;28;20205;-66
2022/01/16 04:30:08;;;;;;;10.55;9.65;;;;;;;0.99;61.02;95819.09;5075571;28;20247;-66
2022/01/16 04:32:35;;;;;;;10.27;9.43;;;;;;;0.94;61.22;95814.47;5075186;28;20201;-66
2022/01/16 04:35:04;;;;;;;10.50;9.60;;;;;;;0.92;61.24;95817.47;5075265;28;20304;-66
2022/01/16 04:37:31;;;;;;;10.52;9.63;;;;;;;0.94;61.33;95826.16;5076167;28;20184;-65
2022/01/16 04:40:01;;;;;;;10.75;9.80;;;;;;;0.92;61.52;95817.47;5075685;28;20200;-65
2022/01/16 04:45:13;;;;;;;10.77;9.88;;;;;;;0.93;61.23;95810.94;5074868;28;20200;-65
2022/01/16 04:47:40;;;;;;;10.88;9.93;;;;;;;0.96;61.27;95823.16;5075954;28;20216;-65
2022/01/16 04:50:11;;;;;;;10.77;9.90;;;;;;;0.93;60.79;95823.72;5075644;28;20201;-65
2022/01/16 04:52:39;;;;;;;10.30;9.40;;;;;;;0.92;61.27;95822.09;5075928;28;20217;-65
2022/01/16 04:55:07;;;;;;;10.75;9.85;;;;;;;0.91;61.42;95815.84;5075821;28;20486;-65
2022/01/16 04:57:35;;;;;;;11.20;10.30;;;;;;;0.86;61.19;95820.44;5076012;28;20613;-65
2022/01/16 05:00:02;;;;;;;11.40;10.40;;;;;;;0.87;61.72;95819.34;5075787;28;20219;-65
2022/01/16 05:02:29;;;;;;;10.63;9.77;;;;;;;0.92;60.90;95817.47;5074848;28;20533;-65
2022/01/16 05:04:56;;;;;;;10.30;9.50;;;;;;;0.96;61.07;95832.13;5075641;28;20185;-65
2022/01/16 05:07:24;;;;;;;11.50;10.50;;;;;;;0.97;61.03;95824.78;5075501;28;20216;-65
2022/01/16 05:09:51;;;;;;;10.00;9.20;;;;;;;0.94;61.07;95815.31;5075035;28;20207;-65
2022/01/16 05:12:26;;;;;;;10.68;9.68;;;;;;;1.00;61.08;95815.28;5074424;28;20208;-65
2022/01/16 05:17:37;;;;;;;12.45;11.35;;;;;;;1.06;60.70;95806.03;5075391;28;20222;-65
2022/01/16 05:20:05;;;;;;;11.13;10.23;;;;;;;1.10;60.85;95807.94;5074579;28;20204;-65
2022/01/16 05:22:33;;;;;;;10.27;9.38;;;;;;;1.17;60.45;95813.88;5075550;28;20181;-65
2022/01/16 05:25:01;;;;;;;9.90;9.10;;;;;;;1.21;60.63;95822.31;5075306;28;20203;-65
2022/01/16 05:27:27;;;;;;;9.77;8.90;;;;;;;1.21;60.20;95822.31;5075292;28;20220;-65
2022/01/16 05:29:54;;;;;;;8.88;8.18;;;;;;;1.21;59.99;95822.31;5073501;28;20612;-65
2022/01/16 05:32:21;;;;;;;9.43;8.73;;;;;;;1.16;60.03;95815.00;5074387;28;20324;-65
2022/01/16 05:34:48;;;;;;;9.02;8.32;;;;;;;1.19;60.14;95819.03;5074333;28;20203;-65
2022/01/16 05:37:14;;;;;;;9.60;8.80;;;;;;;1.20;60.15;95815.25;5074259;28;20201;-65
2022/01/16 05:39:45;;;;;;;9.50;8.60;;;;;;;1.20;60.50;95817.97;5075278;28;20214;-66
2022/01/16 05:42:13;;;;;;;9.07;8.38;;;;;;;1.20;59.87;95820.69;5074549;28;20620;-65
2022/01/16 05:44:40;;;;;;;8.73;8.05;;;;;;;1.17;60.11;95821.22;5074980;28;20189;-65
2022/01/16 05:47:10;;;;;;;9.52;8.73;;;;;;;1.14;60.24;95828.03;5075127;28;20211;-66
2022/01/16 05:49:37;;;;;;;9.43;8.63;;;;;;;1.15;59.88;95824.22;5074726;28;20195;-65
2022/01/16 05:52:04;;;;;;;9.68;8.98;;;;;;;1.14;60.01;95825.31;5075166;28;20189;-65
2022/01/16 05:54:31;;;;;;;9.60;8.80;;;;;;;1.13;59.61;95823.69;5075080;28;20181;-66
2022/01/16 05:56:59;;;;;;;10.00;9.20;;;;;;;1.11;59.98;95831.28;5073864;28;20208;-65
2022/01/16 05:59:26;;;;;;;9.68;8.88;;;;;;;1.06;59.71;95831.31;5074720;28;20185;-64
2022/01/16 06:01:53;;;;;;;9.75;8.90;;;;;;;1.01;60.52;95835.91;5074460;28;20234;-64
2022/01/16 06:04:19;;;;;;;9.32;8.63;;;;;;;1.02;59.96;95834.81;5074081;28;20201;-63
2022/01/16 06:06:46;;;;;;;9.82;8.93;;;;;;;0.96;60.18;95825.88;5073872;28;20221;-65
2022/01/16 06:09:13;;;;;;;9.80;8.90;;;;;;;0.93;60.25;95835.38;5074675;28;20181;-65
2022/01/16 06:11:40;;;;;;;9.65;8.85;;;;;;;0.95;60.38;95833.22;5074023;28;20215;-65
2022/01/16 06:14:08;;;;;;;10.18;9.38;;;;;;;0.91;59.91;95826.72;5073968;28;20197;-64
2022/01/16 06:16:37;;;;;;;10.13;9.23;;;;;;;0.91;59.84;95837.56;5074854;28;20186;-64
2022/01/16 06:19:04;;;;;;;9.88;8.98;;;;;;;0.84;60.01;95847.09;5074460;28;20239;-64
2022/01/16 06:21:30;;;;;;;9.93;9.13;;;;;;;0.83;59.84;95840.81;5074529;28;20512;-64
2022/01/16 06:23:57;;;;;;;9.77;8.98;;;;;;;0.85;60.00;95844.09;5074018;28;20201;-65
2022/01/16 06:26:24;;;;;;;11.20;10.20;;;;;;;0.82;59.73;95843.81;5074690;28;20193;-64
2022/01/16 06:28:51;;;;;;;10.40;9.50;;;;;;;0.81;59.45;95845.72;5072971;28;20239;-64
2022/01/16 06:31:19;;;;;;;10.15;9.27;;;;;;;0.79;59.73;95858.75;5073913;28;20204;-64
2022/01/16 06:33:46;;;;;;;9.75;9.00;;;;;;;0.78;59.57;95854.41;5073734;28;20205;-64
2022/01/16 06:36:13;;;;;;;10.10;9.20;;;;;;;0.78;60.10;95873.41;5073964;28;20215;-64
2022/01/16 06:38:39;;;;;;;9.77;8.98;;;;;;;0.74;59.91;95869.63;5075561;28;20247;-64
2022/01/16 06:41:06;;;;;;;9.85;9.05;;;;;;;0.77;59.65;95879.94;5074009;28;20200;-65
2022/01/16 06:43:33;;;;;;;10.48;9.57;;;;;;;0.78;59.65;95873.41;5073868;28;20318;-64
2022/01/16 06:46:00;;;;;;;9.57;8.73;;;;;;;0.81;59.27;95869.34;5074560;28;20189;-64
2022/01/16 06:48:28;;;;;;;13.70;12.50;;;;;;;0.83;59.65;95864.44;5073796;28;20217;-64
2022/01/16 06:50:55;;;;;;;10.60;9.68;;;;;;;0.84;59.50;95866.09;5074764;28;20188;-64
2022/01/16 06:53:21;;;;;;;10.20;9.30;;;;;;;0.87;59.99;95854.66;5074545;28;20178;-63
2022/01/16 06:55:48;;;;;;;9.88;9.07;;;;;;;0.88;59.34;95876.13;5077254;28;20189;-64
2022/01/16 06:58:15;;;;;;;9.65;8.85;;;;;;;0.89;59.62;95866.09;5077318;28;20190;-64
2022/01/16 07:00:42;;;;;;;9.13;8.43;;;;;;;0.91;59.47;95872.88;5077007;28;20203;-64
2022/01/16 07:03:09;;;;;;;9.13;8.43;;;;;;;0.95;59.48;95873.16;5078058;28;20209;-64
2022/01/16 07:05:37;;;;;;;9.63;8.73;;;;;;;0.96;59.73;95877.50;5077670;28;20626;-64
2022/01/16 07:08:04;;;;;;;9.45;8.70;;;;;;;1.00;59.47;95894.06;5077980;28;20216;-64
2022/01/16 07:10:30;;;;;;;10.75;9.85;;;;;;;1.03;59.18;95888.91;5076890;28;20211;-64
2022/01/16 07:12:57;;;;;;;12.52;11.40;;;;;;;1.06;59.93;95895.69;5077707;28;20204;-64
2022/01/16 07:15:24;;;;;;;12.68;11.57;;;;;;;1.05;59.95;95891.34;5076953;28;20633;-64
2022/01/16 07:17:51;;;;;;;12.30;11.20;;;;;;;0.97;60.78;95892.69;5077802;28;20188;-64
2022/01/16 07:20:17;;;;;;;12.48;11.38;;;;;;;0.89;60.93;95890.53;5077412;28;20616;-64
2022/01/16 07:22:46;;;;;;;12.50;11.48;;;;;;;0.86;60.93;95891.06;5078154;28;20545;-64
2022/01/16 07:25:13;;;;;;;12.10;11.10;;;;;;;0.88;61.33;95895.16;5079124;28;20193;-64
2022/01/16 07:27:40;;;;;;;10.88;9.88;;;;;;;0.99;60.83;95895.97;5077466;28;20242;-64
2022/01/16 07:30:08;;;;;;;10.50;9.68;;;;;;;1.12;60.68;95886.44;5077095;28;20237;-64
2022/01/16 07:32:35;;;;;;;10.20;9.30;;;;;;;1.27;60.08;95888.31;5077745;28;20185;-64
2022/01/16 07:35:03;;;;;;;9.65;8.82;;;;;;;1.43;59.75;95889.94;5078172;28;20190;-63
2022/01/16 07:37:30;;;;;;;8.77;8.00;;;;;;;1.47;59.16;95899.19;5077636;28;20209;-64
2022/01/16 07:39:58;;;;;;;8.18;7.47;;;;;;;1.58;58.98;95900.78;5077285;28;20283;-64
2022/01/16 07:42:25;;;;;;;8.73;7.93;;;;;;;1.72;58.73;95902.94;5077307;28;20203;-64
2022/01/16 07:44:52;;;;;;;8.00;7.30;;;;;;;1.85;58.19;95905.03;5077282;28;20189;-64
2022/01/16 07:47:19;;;;;;;7.60;7.00;;;;;;;2.00;58.10;95904.16;5076368;28;20213;-63
2022/01/16 07:49:46;;;;;;;7.72;7.13;;;;;;;2.15;58.21;95902.22;5077159;28;20181;-63
2022/01/16 07:52:13;;;;;;;8.27;7.55;;;;;;;2.27;57.45;95904.59;5076363;28;20669;-64
2022/01/16 07:54:40;;;;;;;8.00;7.40;;;;;;;2.31;57.17;95908.41;5076984;28;20186;-64
2022/01/16 07:57:08;;;;;;;8.70;7.90;;;;;;;2.42;57.02;95917.31;5077183;28;20196;-64
2022/01/16 07:59:35;;;;;;;7.50;6.70;;;;;;;2.51;57.07;95912.94;5077114;28;20193;-65
2022/01/16 08:02:02;;;;;;;8.48;7.78;;;;;;;2.82;57.34;95919.00;5077130;28;20189;-64
2022/01/16 08:04:29;;;;;;;8.70;7.90;;;;;;;2.89;56.51;95908.59;5076082;28;20192;-64
2022/01/16 08:06:55;;;;;;;8.70;8.00;;;;;;;2.92;56.13;95906.41;5075871;28;20199;-66
2022/01/16 08:09:22;;;;;;;9.68;8.98;;;;;;;2.96;56.42;95911.00;5076738;28;20181;-64
2022/01/16 08:11:49;;;;;;;9.18;8.38;;;;;;;3.04;56.30;95904.94;5077157;28;20625;-65
2022/01/16 08:14:17;;;;;;;8.80;8.10;;;;;;;3.08;56.71;95899.72;5075758;28;20201;-64
2022/01/16 08:16:44;;;;;;;9.63;8.82;;;;;;;3.20;57.10;95910.28;5076663;28;20189;-64
2022/01/16 08:19:11;;;;;;;10.75;9.85;;;;;;;3.34;57.49;95911.22;5077442;28;20193;-65
2022/01/16 08:21:37;;;;;;;8.85;8.15;;;;;;;3.42;55.59;95907.09;5077430;28;20193;-65
2022/01/16 08:24:05;;;;;;;9.40;8.60;;;;;;;3.33;56.28;95909.59;5076624;28;20206;-64
2022/01/16 08:26:32;;;;;;;10.13;9.23;;;;;;;3.32;56.19;95908.78;5076499;28;20247;-64
2022/01/16 08:28:59;;;;;;;8.93;8.23;;;;;;;3.29;55.73;95898.44;5075472;28;20655;-64
2022/01/16 08:31:27;;;;;;;10.25;9.35;;;;;;;3.24;55.52;95903.97;5075662;28;20217;-64
2022/01/16 08:33:54;;;;;;;9.57;8.50;;;;;;;3.13;55.53;95900.50;5076285;28;20200;-64
2022/01/16 08:36:21;;;;;;;10.50;9.60;;;;;;;3.21;56.46;95901.81;5075461;28;20205;-64
2022/01/16 08:38:48;;;;;;;11.30;10.27;;;;;;;3.40;56.47;95903.81;5076250;28;20242;-64
2022/01/16 08:41:15;;;;;;;10.35;9.45;;;;;;;3.22;55.78;95902.63;5076096;28;20601;-64
2022/01/16 08:43:42;;;;;;;10.38;9.38;;;;;;;3.08;56.21;95894.28;5076069;28;20279;-64
2022/01/16 08:46:09;;;;;;;12.57;11.27;;;;;;;3.19;56.18;95895.81;5075790;28;20600;-64
2022/01/16 08:48:37;;;;;;;12.48;11.27;;;;;;;3.36;56.52;95898.13;5074832;28;20216;-64
2022/01/16 08:51:04;;;;;;;11.60;10.60;;;;;;;3.43;56.10;95904.06;5075616;28;20595;-64
2022/01/16 08:53:31;;;;;;;12.27;11.10;;;;;;;3.54;56.62;95894.69;5074987;28;20200;-64
2022/01/16 08:55:58;;;;;;;12.60;11.38;;;;;;;3.65;55.27;95887.19;5074929;28;20209;-64
2022/01/16 08:58:25;;;;;;;12.77;11.48;;;;;;;3.70;55.11;95887.13;5075154;28;20200;-64
2022/01/16 09:00:52;;;;;;;11.45;10.32;;;;;;;3.69;55.27;95890.16;5074786;28;20208;-64
2022/01/16 09:03:19;;;;;;;10.90;9.90;;;;;;;3.90;55.64;95894.31;5075794;28;20185;-64
2022/01/16 09:05:47;;;;;;;11.43;10.45;;;;;;;3.93;54.39;95887.47;5075754;28;20200;-64
2022/01/16 09:08:14;;;;;;;10.40;9.43;;;;;;;4.09;55.30;95880.69;5075654;28;20258;-65
2022/01/16 09:10:42;;;;;;;11.05;10.05;;;;;;;4.24;55.47;95877.78;5075531;28;20207;-65
2022/01/16 09:13:11;;;;;;;11.98;10.98;;;;;;;4.35;55.07;95876.53;5075313;28;20185;-65
2022/01/16 09:15:38;;;;;;;11.27;10.23;;;;;;;4.49;53.73;95870.34;5074707;28;20311;-65
2022/01/16 09:18:05;;;;;;;11.20;10.18;;;;;;;4.59;54.19;95881.13;5073909;28;20197;-65
2022/01/16 09:20:32;;;;;;;11.20;10.20;;;;;;;4.79;54.29;95867.19;5075883;28;20185;-65
2022/01/16 09:23:01;;;;;;;11.10;10.10;;;;;;;4.91;53.52;95860.44;5075018;28;20605;-65
2022/01/16 09:25:28;;;;;;;11.25;10.20;;;;;;;4.91;52.76;95858.53;5074977;28;20229;-65
2022/01/16 09:27:55;;;;;;;9.38;8.57;;;;;;;4.79;52.97;95855.41;5075323;28;20215;-65
2022/01/16 09:30:23;;;;;;;9.32;8.48;;;;;;;5.07;55.26;95848.94;5074655;28;20229;-64
2022/01/16 09:32:50;;;;;;;10.38;9.40;;;;;;;5.19;53.24;95855.88;5074371;28;20193;-67
2022/01/16 09:35:17;;;;;;;13.43;10.30;;;;;;;5.19;53.72;95853.13;5075277;28;20205;-65
2022/01/16 09:37:44;;;;;;;10.55;9.30;;;;;;;5.41;54.51;95844.28;5075246;28;20200;-65
2022/01/16 09:40:15;;;;;;;9.55;8.75;;;;;;;5.66;54.13;95837.53;5075302;28;20185;-65
2022/01/16 09:42:42;;;;;;;10.55;9.55;;;;;;;5.61;51.94;95843.09;5074452;28;20200;-65
2022/01/16 09:45:11;;;;;;;9.50;8.70;;;;;;;5.49;51.97;95832.66;5075480;28;20181;-65
2022/01/16 09:47:38;;;;;;;9.30;8.50;;;;;;;5.51;53.05;95833.16;5074707;28;20193;-65
2022/01/16 09:50:06;;;;;;;9.35;8.40;;;;;;;5.70;53.56;95830.31;5075239;28;20185;-65
2022/01/16 09:52:35;;;;;;;10.13;9.23;;;;;;;5.73;52.21;95827.78;5074181;28;20200;-65
2022/01/16 09:55:02;;;;;;;9.32;8.50;;;;;;;5.77;52.75;95823.38;5075733;28;20204;-65
2022/01/16 09:57:31;;;;;;;10.57;9.68;;;;;;;5.90;52.80;95815.44;5075080;28;20181;-65
2022/01/16 09:59:57;;;;;;;9.38;8.50;;;;;;;6.05;52.70;95817.09;5074307;28;20207;-65
2022/01/16 10:02:24;;;;;;;8.43;7.72;;;;;;;5.93;50.84;95820.34;5074793;28;20185;-65
2022/01/16 10:04:53;;;;;;;9.15;8.30;;;;;;;6.00;50.97;95810.59;5074895;28;20219;-65
2022/01/16 10:07:20;;;;;;;9.10;8.30;;;;;;;6.03;50.87;95799.03;5074728;28;20177;-65
2022/01/16 10:10:05;;;;;;;8.75;7.95;;;;;;;6.19;52.52;95802.25;5074134;28;20283;-65
2022/01/16 10:12:35;;;;;;;8.80;8.00;;;;;;;6.33;51.39;95804.16;5073649;28;20211;-65
2022/01/16 10:15:16;;;;;;;10.30;9.40;;;;;;;6.40;51.58;95799.88;5074913;28;20190;-65
2022/01/16 10:17:44;;;;;;;11.40;10.45;;;;;;;6.49;51.45;95788.97;5074581;28;20211;-65
2022/01/16 10:20:11;;;;;;;10.82;9.82;;;;;;;6.54;49.86;95788.88;5074830;28;20208;-65
2022/01/16 10:22:39;;;;;;;9.38;8.57;;;;;;;6.60;49.99;95784.06;5073860;28;20183;-65
2022/01/16 10:25:07;;;;;;;10.30;8.85;;;;;;;6.51;47.85;95794.97;5075106;28;20192;-65
2022/01/16 10:27:37;;;;;;;11.02;8.48;;;;;;;6.48;49.86;95788.19;5074803;28;20193;-65
2022/01/16 10:30:07;;;;;;;9.88;8.88;;;;;;;6.57;49.93;95779.22;5076239;28;20236;-65
2022/01/16 10:32:37;;;;;;;10.50;9.52;;;;;;;6.63;50.12;95772.50;5078706;28;20254;-65
2022/01/16 10:35:11;;;;;;;9.70;8.90;;;;;;;6.71;49.75;95769.81;5078756;28;20194;-65
2022/01/16 10:37:40;;;;;;;9.93;9.02;;;;;;;6.74;49.00;95762.91;5077864;28;20199;-65
2022/01/16 10:40:10;;;;;;;8.93;8.23;;;;;;;6.80;48.97;95756.19;5078959;28;20185;-65
2022/01/16 10:42:40;;;;;;;9.20;8.40;;;;;;;6.91;47.09;95759.47;5077117;28;20209;-64
2022/01/16 10:45:09;;;;;;;9.32;8.43;;;;;;;6.88;47.17;95757.38;5078516;28;20189;-65
2022/01/16 10:47:38;;;;;;;9.10;8.32;;;;;;;6.95;49.01;95760.47;5077652;28;20193;-65
2022/01/16 10:50:14;;;;;;;10.07;9.18;;;;;;;6.91;47.26;95760.28;5077506;28;20220;-64
2022/01/16 10:52:55;;;;;;;10.90;9.90;;;;;;;6.91;48.24;95757.53;5078209;28;20188;-64
2022/01/16 10:55:24;;;;;;;11.80;10.70;;;;;;;6.77;47.68;95747.78;5077954;28;20181;-63
2022/01/16 10:58:01;;;;;;;10.88;9.88;;;;;;;6.72;48.05;95741.28;5078576;28;20190;-63
2022/01/16 11:00:28;;;;;;;12.82;11.73;;;;;;;6.45;47.53;95741.41;5078723;28;20254;-63
2022/01/16 11:02:55;;;;;;;13.80;12.50;;;;;;;6.28;47.70;95736.56;5076741;28;20197;-63
2022/01/16 11:05:23;;;;;;;13.40;12.20;;;;;;;5.97;48.24;95734.53;5078689;28;20197;-64
2022/01/16 11:07:57;;;;;;;10.43;9.57;;;;;;;6.00;48.59;95731.19;5077998;28;20246;-63
2022/01/16 11:10:27;;;;;;;10.18;9.18;;;;;;;5.97;49.76;95740.00;5078084;28;20197;-63
2022/01/16 11:12:58;;;;;;;11.07;10.07;;;;;;;6.18;48.77;95742.31;5077850;28;20196;-63
2022/01/16 11:15:25;;;;;;;11.63;10.52;;;;;;;6.47;49.54;95731.75;5077104;28;20200;-63
2022/01/16 11:17:52;;;;;;;11.40;10.40;;;;;;;6.75;48.79;95731.63;5077940;28;20186;-63
2022/01/16 11:20:26;;;;;;;11.30;10.30;;;;;;;6.98;47.84;95727.75;5077770;28;20189;-63
2022/01/16 11:23:03;;;;;;;11.93;10.55;;;;;;;7.18;46.45;95734.63;5076732;28;20188;-64
2022/01/16 11:25:33;;;;;;;15.13;13.73;;;;;;;7.29;48.22;95728.88;5077348;28;20181;-64
2022/01/16 11:28:05;;;;;;;17.73;15.93;;;;;;;7.28;47.52;95724.50;5076956;28;20288;-63
2022/01/16 11:30:33;;;;;;;14.88;13.45;;;;;;;7.30;47.29;95719.50;5075799;28;20240;-63
2022/01/16 11:33:00;;;;;;;14.35;12.93;;;;;;;7.31;46.38;95716.44;5076263;28;20212;-63
2022/01/16 11:35:28;;;;;;;14.90;13.50;;;;;;;7.36;46.17;95702.59;5076617;28;20204;-63
2022/01/16 11:37:56;;;;;;;15.40;13.82;;;;;;;7.48;46.85;95699.25;5076170;28;20193;-63
2022/01/16 11:40:27;;;;;;;16.63;14.82;;;;;;;7.63;45.72;95698.81;5075476;28;20208;-63
2022/01/16 11:43:30;;;;;;;16.85;15.35;;;;;;;7.71;44.96;95700.75;5077016;28;20249;-63
2022/01/16 11:46:10;;;;;;;16.00;14.57;;;;;;;7.78;45.08;95696.75;5077426;28;20211;-63
2022/01/16 11:48:55;;;;;;;17.35;15.68;;;;;;;7.91;45.07;95695.78;5075908;28;20224;-63
2022/01/16 11:51:59;;;;;;;18.77;16.88;;;;;;;8.25;43.88;95689.53;5073629;28;20208;-63
2022/01/16 11:54:28;;;;;;;18.65;16.85;;;;;;;8.34;43.81;95698.59;5077278;28;20189;-63
2022/01/16 11:57:00;;;;;;;18.73;16.80;;;;;;;8.43;44.05;95693.94;5076795;28;20208;-63
2022/01/16 11:59:29;;;;;;;19.77;17.83;;;;;;;8.77;44.39;95688.72;5076828;28;20621;-63
2022/01/16 12:02:00;;;;;;;20.02;18.20;;;;;;;9.09;44.02;95687.38;5076704;28;20232;-63
2022/01/16 12:04:53;;;;;;;18.67;16.88;;;;;;;9.48;42.13;95685.44;5077045;28;20189;-63
2022/01/16 12:07:46;;;;;;;18.65;16.73;;;;;;;9.55;41.36;95685.72;5075922;28;20205;-63
2022/01/16 12:10:13;;;;;;;18.40;16.60;;;;;;;9.65;41.36;95680.63;5076922;28;20252;-63
2022/01/16 12:12:39;;;;;;;18.20;16.42;;;;;;;10.24;40.04;95670.69;5075862;28;20197;-64
2022/01/16 12:15:08;;;;;;;18.05;16.35;;;;;;;11.09;38.33;95682.13;5076763;28;20212;-63
2022/01/16 12:17:44;;;;;;;21.05;18.58;;;;;;;12.33;36.37;95675.50;5075860;28;20192;-64
2022/01/16 12:20:23;;;;;;;19.85;17.88;;;;;;;13.36;34.02;95671.25;5076634;28;20193;-65
2022/01/16 12:22:52;;;;;;;19.20;17.30;;;;;;;13.55;33.41;95667.81;5075654;28;20291;-64